sensor_id;sensor_type;location;lat;lon;timestamp;pressure;altitude;pressure_sealevel;temperature;humidity
10718;BME280;13513;42.700;23.124;2022-10-31T00:00:30;93407.53;;;14.20;59.65
10718;BME280;13513;42.700;23.124;2022-10-31T00:03:01;93409.03;;;14.08;60.31
10718;BME280;13513;42.700;23.124;2022-10-31T00:05:32;93405.54;;;14.03;60.58
10718;BME280;13513;42.700;23.124;2022-10-31T00:08:03;93400.22;;;14.03;60.80
10718;BME280;13513;42.700;23.124;2022-10-31T00:10:36;93401.00;;;13.96;60.98
10718;BME280;13513;42.700;23.124;2022-10-31T00:13:06;93406.06;;;13.97;61.01
10718;BME280;13513;42.700;23.124;2022-10-31T00:15:38;93403.41;;;13.97;61.35
10718;BME280;13513;42.700;23.124;2022-10-31T00:18:11;93403.31;;;13.87;62.27
10718;BME280;13513;42.700;23.124;2022-10-31T00:20:43;93406.50;;;13.89;62.08
10718;BME280;13513;42.700;23.124;2022-10-31T00:23:14;93407.80;;;13.84;62.69
10718;BME280;13513;42.700;23.124;2022-10-31T00:25:45;93412.86;;;13.86;62.89
10718;BME280;13513;42.700;23.124;2022-10-31T00:28:16;93403.06;;;13.89;62.85
10718;BME280;13513;42.700;23.124;2022-10-31T00:30:47;93398.85;;;13.95;62.88
10718;BME280;13513;42.700;23.124;2022-10-31T00:33:18;93400.27;;;14.05;62.63
10718;BME280;13513;42.700;23.124;2022-10-31T00:35:51;93398.38;;;14.03;62.57
10718;BME280;13513;42.700;23.124;2022-10-31T00:38:22;93401.06;;;14.08;62.68
10718;BME280;13513;42.700;23.124;2022-10-31T00:40:54;93399.78;;;14.11;62.54
10718;BME280;13513;42.700;23.124;2022-10-31T00:43:25;93404.27;;;14.08;62.86
10718;BME280;13513;42.700;23.124;2022-10-31T00:45:56;93406.59;;;13.99;63.83
10718;BME280;13513;42.700;23.124;2022-10-31T00:48:28;93406.61;;;14.04;63.29
10718;BME280;13513;42.700;23.124;2022-10-31T00:50:58;93394.39;;;14.03;63.43
10718;BME280;13513;42.700;23.124;2022-10-31T00:53:29;93395.73;;;14.06;63.21
10718;BME280;13513;42.700;23.124;2022-10-31T00:56:02;93401.64;;;14.13;63.03
10718;BME280;13513;42.700;23.124;2022-10-31T00:58:33;93396.64;;;14.19;62.83
10718;BME280;13513;42.700;23.124;2022-10-31T01:01:04;93396.91;;;14.20;63.18
10718;BME280;13513;42.700;23.124;2022-10-31T01:03:35;93397.92;;;14.16;63.45
10718;BME280;13513;42.700;23.124;2022-10-31T01:06:08;93402.70;;;14.12;63.71
10718;BME280;13513;42.700;23.124;2022-10-31T01:08:39;93401.65;;;14.15;64.12
10718;BME280;13513;42.700;23.124;2022-10-31T01:11:16;93401.91;;;14.16;64.56
10718;BME280;13513;42.700;23.124;2022-10-31T01:13:46;93406.20;;;14.17;63.73
10718;BME280;13513;42.700;23.124;2022-10-31T01:16:18;93404.57;;;14.16;64.41
10718;BME280;13513;42.700;23.124;2022-10-31T01:18:51;93406.72;;;14.19;64.34
10718;BME280;13513;42.700;23.124;2022-10-31T01:21:24;93405.38;;;14.17;64.00
10718;BME280;13513;42.700;23.124;2022-10-31T01:23:55;93410.50;;;14.23;64.61
10718;BME280;13513;42.700;23.124;2022-10-31T01:26:29;93406.52;;;14.23;64.63
10718;BME280;13513;42.700;23.124;2022-10-31T01:29:08;93403.45;;;14.07;65.07
10718;BME280;13513;42.700;23.124;2022-10-31T01:31:35;93405.34;;;14.09;64.86
10718;BME280;13513;42.700;23.124;2022-10-31T01:34:06;93407.77;;;14.13;64.86
10718;BME280;13513;42.700;23.124;2022-10-31T01:36:37;93407.78;;;14.16;65.48
10718;BME280;13513;42.700;23.124;2022-10-31T01:39:11;93406.02;;;14.29;64.71
10718;BME280;13513;42.700;23.124;2022-10-31T01:41:46;93401.30;;;14.41;64.28
10718;BME280;13513;42.700;23.124;2022-10-31T01:49:36;93396.64;;;14.60;64.01
10718;BME280;13513;42.700;23.124;2022-10-31T01:54:47;93398.86;;;14.81;61.55
10718;BME280;13513;42.700;23.124;2022-10-31T02:00:41;93394.38;;;14.96;60.84
10718;BME280;13513;42.700;23.124;2022-10-31T02:03:13;93391.46;;;14.95;60.94
10718;BME280;13513;42.700;23.124;2022-10-31T02:05:44;93385.37;;;15.07;60.68
10718;BME280;13513;42.700;23.124;2022-10-31T02:08:26;93387.22;;;15.04;61.09
10718;BME280;13513;42.700;23.124;2022-10-31T02:10:58;93379.79;;;15.06;60.93
10718;BME280;13513;42.700;23.124;2022-10-31T02:13:32;93388.03;;;15.05;61.54
10718;BME280;13513;42.700;23.124;2022-10-31T02:16:05;93386.70;;;15.10;61.65
10718;BME280;13513;42.700;23.124;2022-10-31T02:18:38;93388.59;;;15.17;60.54
10718;BME280;13513;42.700;23.124;2022-10-31T02:21:19;93385.16;;;15.24;59.76
10718;BME280;13513;42.700;23.124;2022-10-31T02:23:56;93393.96;;;15.32;60.19
10718;BME280;13513;42.700;23.124;2022-10-31T02:29:38;93407.31;;;15.37;60.69
10718;BME280;13513;42.700;23.124;2022-10-31T02:40:30;93416.28;;;15.13;62.07
10718;BME280;13513;42.700;23.124;2022-10-31T02:48:33;93421.35;;;15.17;61.93
10718;BME280;13513;42.700;23.124;2022-10-31T02:51:05;93422.38;;;15.06;62.65
10718;BME280;13513;42.700;23.124;2022-10-31T02:53:36;93428.08;;;14.76;64.13
10718;BME280;13513;42.700;23.124;2022-10-31T02:56:12;93424.06;;;14.68;65.70
10718;BME280;13513;42.700;23.124;2022-10-31T02:58:53;93422.75;;;14.73;65.76
10718;BME280;13513;42.700;23.124;2022-10-31T03:09:54;93433.80;;;14.50;67.08
10718;BME280;13513;42.700;23.124;2022-10-31T03:12:25;93437.94;;;14.34;67.28
10718;BME280;13513;42.700;23.124;2022-10-31T03:17:38;93435.53;;;14.30;68.27
10718;BME280;13513;42.700;23.124;2022-10-31T03:20:11;93435.28;;;14.34;68.37
10718;BME280;13513;42.700;23.124;2022-10-31T03:22:48;93438.74;;;14.32;68.72
10718;BME280;13513;42.700;23.124;2022-10-31T03:25:19;93442.73;;;14.32;68.26
10718;BME280;13513;42.700;23.124;2022-10-31T03:27:51;93444.31;;;14.30;68.33
10718;BME280;13513;42.700;23.124;2022-10-31T03:30:22;93439.75;;;13.92;70.82
10718;BME280;13513;42.700;23.124;2022-10-31T03:32:54;93446.66;;;13.64;73.29
10718;BME280;13513;42.700;23.124;2022-10-31T03:35:26;93447.28;;;13.44;74.62
10718;BME280;13513;42.700;23.124;2022-10-31T03:37:58;93449.10;;;13.41;75.55
10718;BME280;13513;42.700;23.124;2022-10-31T03:40:30;93447.50;;;13.40;75.48
10718;BME280;13513;42.700;23.124;2022-10-31T03:43:08;93450.47;;;13.46;75.30
10718;BME280;13513;42.700;23.124;2022-10-31T03:45:41;93453.70;;;13.51;74.62
10718;BME280;13513;42.700;23.124;2022-10-31T03:48:13;93455.30;;;13.52;74.53
10718;BME280;13513;42.700;23.124;2022-10-31T03:50:58;93455.73;;;13.41;75.39
10718;BME280;13513;42.700;23.124;2022-10-31T03:53:36;93457.35;;;13.45;75.60
10718;BME280;13513;42.700;23.124;2022-10-31T03:56:27;93455.84;;;13.51;75.03
10718;BME280;13513;42.700;23.124;2022-10-31T03:59:04;93461.87;;;13.44;75.16
10718;BME280;13513;42.700;23.124;2022-10-31T04:01:27;93468.20;;;13.41;75.81
10718;BME280;13513;42.700;23.124;2022-10-31T04:03:59;93469.72;;;13.34;76.64
10718;BME280;13513;42.700;23.124;2022-10-31T04:06:32;93471.25;;;13.28;76.85
10718;BME280;13513;42.700;23.124;2022-10-31T04:09:04;93475.28;;;13.33;76.76
10718;BME280;13513;42.700;23.124;2022-10-31T04:11:38;93480.07;;;13.33;76.81
10718;BME280;13513;42.700;23.124;2022-10-31T04:14:09;93469.97;;;13.33;77.14
10718;BME280;13513;42.700;23.124;2022-10-31T04:16:44;93470.52;;;13.32;77.56
10718;BME280;13513;42.700;23.124;2022-10-31T04:19:16;93472.72;;;13.40;77.51
10718;BME280;13513;42.700;23.124;2022-10-31T04:21:47;93469.39;;;13.52;76.49
10718;BME280;13513;42.700;23.124;2022-10-31T04:24:20;93476.16;;;13.65;75.64
10718;BME280;13513;42.700;23.124;2022-10-31T04:26:53;93477.49;;;13.65;76.00
10718;BME280;13513;42.700;23.124;2022-10-31T04:29:24;93470.88;;;13.67;76.23
10718;BME280;13513;42.700;23.124;2022-10-31T04:31:55;93472.80;;;13.74;75.60
10718;BME280;13513;42.700;23.124;2022-10-31T04:34:26;93474.63;;;13.71;76.16
10718;BME280;13513;42.700;23.124;2022-10-31T04:36:57;93481.33;;;13.79;75.29
10718;BME280;13513;42.700;23.124;2022-10-31T04:39:28;93478.16;;;13.79;75.44
10718;BME280;13513;42.700;23.124;2022-10-31T04:41:58;93466.00;;;13.88;74.79
10718;BME280;13513;42.700;23.124;2022-10-31T04:44:30;93465.48;;;13.89;75.50
10718;BME280;13513;42.700;23.124;2022-10-31T04:47:00;93469.49;;;13.91;75.35
10718;BME280;13513;42.700;23.124;2022-10-31T04:49:31;93467.97;;;14.00;74.83
10718;BME280;13513;42.700;23.124;2022-10-31T04:52:02;93469.06;;;14.04;74.19
10718;BME280;13513;42.700;23.124;2022-10-31T04:54:33;93472.44;;;13.95;74.86
10718;BME280;13513;42.700;23.124;2022-10-31T04:57:06;93480.03;;;13.84;76.03
10718;BME280;13513;42.700;23.124;2022-10-31T04:59:36;93484.31;;;13.85;76.23
10718;BME280;13513;42.700;23.124;2022-10-31T05:02:07;93481.20;;;13.93;75.54
10718;BME280;13513;42.700;23.124;2022-10-31T05:04:38;93480.87;;;13.87;75.82
10718;BME280;13513;42.700;23.124;2022-10-31T05:07:09;93488.16;;;13.70;77.29
10718;BME280;13513;42.700;23.124;2022-10-31T05:09:41;93491.96;;;13.52;78.41
10718;BME280;13513;42.700;23.124;2022-10-31T05:12:10;93489.12;;;13.61;78.20
10718;BME280;13513;42.700;23.124;2022-10-31T05:14:42;93499.31;;;13.45;79.50
10718;BME280;13513;42.700;23.124;2022-10-31T05:17:12;93494.64;;;13.55;79.26
10718;BME280;13513;42.700;23.124;2022-10-31T05:19:43;93508.09;;;13.72;78.81
10718;BME280;13513;42.700;23.124;2022-10-31T05:22:14;93505.48;;;13.77;77.53
10718;BME280;13513;42.700;23.124;2022-10-31T05:24:45;93509.47;;;13.51;78.91
10718;BME280;13513;42.700;23.124;2022-10-31T05:27:16;93510.59;;;13.33;80.72
10718;BME280;13513;42.700;23.124;2022-10-31T05:29:47;93510.86;;;13.34;80.86
10718;BME280;13513;42.700;23.124;2022-10-31T05:32:17;93514.47;;;13.26;81.29
10718;BME280;13513;42.700;23.124;2022-10-31T05:34:52;93515.66;;;13.35;81.05
10718;BME280;13513;42.700;23.124;2022-10-31T05:37:23;93510.84;;;13.32;81.31
10718;BME280;13513;42.700;23.124;2022-10-31T05:39:52;93519.27;;;13.26;80.29
10718;BME280;13513;42.700;23.124;2022-10-31T05:42:24;93517.67;;;13.25;80.54
10718;BME280;13513;42.700;23.124;2022-10-31T05:44:54;93517.96;;;13.29;81.35
10718;BME280;13513;42.700;23.124;2022-10-31T05:47:25;93517.05;;;13.66;80.26
10718;BME280;13513;42.700;23.124;2022-10-31T05:49:55;93516.14;;;14.09;77.38
10718;BME280;13513;42.700;23.124;2022-10-31T05:52:27;93516.43;;;14.39;74.60
10718;BME280;13513;42.700;23.124;2022-10-31T05:54:57;93518.14;;;14.55;73.05
10718;BME280;13513;42.700;23.124;2022-10-31T05:57:31;93528.88;;;14.67;72.33
10718;BME280;13513;42.700;23.124;2022-10-31T06:00:01;93523.84;;;14.73;71.88
10718;BME280;13513;42.700;23.124;2022-10-31T06:02:32;93517.52;;;14.82;71.11
10718;BME280;13513;42.700;23.124;2022-10-31T06:05:04;93521.34;;;14.96;72.21
10718;BME280;13513;42.700;23.124;2022-10-31T06:07:36;93525.70;;;15.17;69.43
10718;BME280;13513;42.700;23.124;2022-10-31T06:10:07;93531.59;;;15.26;69.74
10718;BME280;13513;42.700;23.124;2022-10-31T06:12:38;93537.16;;;15.20;70.01
10718;BME280;13513;42.700;23.124;2022-10-31T06:15:10;93534.34;;;15.36;68.55
10718;BME280;13513;42.700;23.124;2022-10-31T06:17:41;93534.11;;;15.45;67.57
10718;BME280;13513;42.700;23.124;2022-10-31T06:20:12;93536.28;;;15.61;66.37
10718;BME280;13513;42.700;23.124;2022-10-31T06:22:42;93539.80;;;15.71;65.77
10718;BME280;13513;42.700;23.124;2022-10-31T06:25:13;93543.81;;;15.81;66.35
10718;BME280;13513;42.700;23.124;2022-10-31T06:27:44;93544.41;;;16.03;64.97
10718;BME280;13513;42.700;23.124;2022-10-31T06:30:15;93547.09;;;16.16;64.63
10718;BME280;13513;42.700;23.124;2022-10-31T06:32:48;93545.79;;;16.29;63.82
10718;BME280;13513;42.700;23.124;2022-10-31T06:35:21;93552.19;;;16.35;63.62
10718;BME280;13513;42.700;23.124;2022-10-31T06:37:53;93553.03;;;16.73;62.53
10718;BME280;13513;42.700;23.124;2022-10-31T06:40:23;93551.75;;;17.72;57.20
10718;BME280;13513;42.700;23.124;2022-10-31T06:43:01;93546.95;;;18.92;53.15
10718;BME280;13513;42.700;23.124;2022-10-31T06:45:32;93542.30;;;20.41;49.11
10718;BME280;13513;42.700;23.124;2022-10-31T06:48:05;93552.53;;;21.08;45.92
10718;BME280;13513;42.700;23.124;2022-10-31T06:50:35;93554.88;;;21.42;44.53
10718;BME280;13513;42.700;23.124;2022-10-31T06:53:07;93556.06;;;21.65;44.28
10718;BME280;13513;42.700;23.124;2022-10-31T06:55:38;93557.86;;;21.97;42.92
10718;BME280;13513;42.700;23.124;2022-10-31T06:58:09;93556.20;;;22.12;42.52
10718;BME280;13513;42.700;23.124;2022-10-31T07:00:40;93561.00;;;22.15;42.74
10718;BME280;13513;42.700;23.124;2022-10-31T07:03:12;93559.85;;;22.67;41.06
10718;BME280;13513;42.700;23.124;2022-10-31T07:05:42;93562.89;;;23.10;39.93
10718;BME280;13513;42.700;23.124;2022-10-31T07:08:14;93566.59;;;23.86;38.91
10718;BME280;13513;42.700;23.124;2022-10-31T07:10:50;93557.62;;;24.72;37.83
10718;BME280;13513;42.700;23.124;2022-10-31T07:13:17;93562.22;;;25.06;36.83
10718;BME280;13513;42.700;23.124;2022-10-31T07:15:48;93560.47;;;25.10;36.36
10718;BME280;13513;42.700;23.124;2022-10-31T07:18:18;93561.33;;;25.16;36.54
10718;BME280;13513;42.700;23.124;2022-10-31T07:20:49;93570.75;;;25.67;35.44
10718;BME280;13513;42.700;23.124;2022-10-31T07:23:19;93569.28;;;26.01;35.05
10718;BME280;13513;42.700;23.124;2022-10-31T07:25:58;93568.50;;;26.30;34.21
10718;BME280;13513;42.700;23.124;2022-10-31T07:28:27;93563.73;;;26.56;33.85
10718;BME280;13513;42.700;23.124;2022-10-31T07:30:59;93560.77;;;27.96;32.52
10718;BME280;13513;42.700;23.124;2022-10-31T07:33:30;93556.84;;;29.78;29.70
10718;BME280;13513;42.700;23.124;2022-10-31T07:36:01;93550.07;;;31.25;27.24
10718;BME280;13513;42.700;23.124;2022-10-31T07:38:32;93553.72;;;32.44;26.03
10718;BME280;13513;42.700;23.124;2022-10-31T07:41:03;93545.05;;;33.63;24.55
10718;BME280;13513;42.700;23.124;2022-10-31T07:43:33;93555.77;;;34.72;22.99
10718;BME280;13513;42.700;23.124;2022-10-31T07:46:04;93553.00;;;35.63;21.95
10718;BME280;13513;42.700;23.124;2022-10-31T07:48:35;93545.37;;;36.25;20.95
10718;BME280;13513;42.700;23.124;2022-10-31T07:51:05;93548.55;;;37.18;19.97
10718;BME280;13513;42.700;23.124;2022-10-31T07:53:39;93548.25;;;38.09;19.81
10718;BME280;13513;42.700;23.124;2022-10-31T07:56:10;93550.77;;;38.73;18.39
10718;BME280;13513;42.700;23.124;2022-10-31T07:58:41;93553.69;;;39.25;17.87
10718;BME280;13513;42.700;23.124;2022-10-31T08:01:12;93552.03;;;39.87;17.91
10718;BME280;13513;42.700;23.124;2022-10-31T08:03:43;93550.80;;;40.37;16.90
10718;BME280;13513;42.700;23.124;2022-10-31T08:06:14;93546.23;;;40.50;16.92
10718;BME280;13513;42.700;23.124;2022-10-31T08:08:45;93548.86;;;41.21;16.08
10718;BME280;13513;42.700;23.124;2022-10-31T08:11:16;93554.58;;;41.57;15.70
10718;BME280;13513;42.700;23.124;2022-10-31T08:13:47;93552.42;;;41.10;15.98
10718;BME280;13513;42.700;23.124;2022-10-31T08:16:19;93550.25;;;41.44;15.79
10718;BME280;13513;42.700;23.124;2022-10-31T08:18:49;93546.97;;;42.00;15.43
10718;BME280;13513;42.700;23.124;2022-10-31T08:21:20;93550.14;;;42.81;14.76
10718;BME280;13513;42.700;23.124;2022-10-31T08:23:51;93552.16;;;43.21;14.61
10718;BME280;13513;42.700;23.124;2022-10-31T08:26:22;93545.55;;;38.60;16.97
10718;BME280;13513;42.700;23.124;2022-10-31T08:28:53;93539.11;;;37.76;18.24
10718;BME280;13513;42.700;23.124;2022-10-31T08:31:24;93541.95;;;37.45;18.90
10718;BME280;13513;42.700;23.124;2022-10-31T08:33:54;93547.00;;;34.52;21.23
10718;BME280;13513;42.700;23.124;2022-10-31T08:36:26;93548.68;;;33.71;21.75
10718;BME280;13513;42.700;23.124;2022-10-31T08:38:59;93547.92;;;33.41;22.27
10718;BME280;13513;42.700;23.124;2022-10-31T08:41:31;93539.89;;;33.12;22.49
10718;BME280;13513;42.700;23.124;2022-10-31T08:44:02;93544.06;;;33.15;22.54
10718;BME280;13513;42.700;23.124;2022-10-31T08:46:32;93540.34;;;31.85;24.90
10718;BME280;13513;42.700;23.124;2022-10-31T08:49:03;93547.99;;;32.66;23.39
10718;BME280;13513;42.700;23.124;2022-10-31T08:51:35;93539.63;;;32.10;24.54
10718;BME280;13513;42.700;23.124;2022-10-31T08:54:06;93544.68;;;31.67;24.56
10718;BME280;13513;42.700;23.124;2022-10-31T08:56:37;93538.23;;;30.93;25.56
10718;BME280;13513;42.700;23.124;2022-10-31T08:59:08;93542.97;;;29.77;26.93
10718;BME280;13513;42.700;23.124;2022-10-31T09:01:39;93542.92;;;27.75;29.12
10718;BME280;13513;42.700;23.124;2022-10-31T09:04:09;93550.50;;;25.96;32.11
10718;BME280;13513;42.700;23.124;2022-10-31T09:06:39;93547.94;;;25.77;33.10
10718;BME280;13513;42.700;23.124;2022-10-31T09:09:10;93551.69;;;24.53;35.10
10718;BME280;13513;42.700;23.124;2022-10-31T09:11:41;93548.81;;;24.41;35.14
10718;BME280;13513;42.700;23.124;2022-10-31T09:14:13;93553.62;;;23.02;37.18
10718;BME280;13513;42.700;23.124;2022-10-31T09:16:45;93552.80;;;22.09;39.19
10718;BME280;13513;42.700;23.124;2022-10-31T09:19:14;93555.87;;;22.02;40.44
10718;BME280;13513;42.700;23.124;2022-10-31T09:21:45;93550.45;;;22.05;40.34
10718;BME280;13513;42.700;23.124;2022-10-31T09:24:15;93553.97;;;22.41;40.84
10718;BME280;13513;42.700;23.124;2022-10-31T09:26:46;93558.27;;;22.04;41.37
10718;BME280;13513;42.700;23.124;2022-10-31T09:29:17;93560.09;;;21.52;43.03
10718;BME280;13513;42.700;23.124;2022-10-31T09:31:48;93553.64;;;21.37;44.50
10718;BME280;13513;42.700;23.124;2022-10-31T09:34:19;93556.00;;;21.54;43.06
10718;BME280;13513;42.700;23.124;2022-10-31T09:36:50;93557.00;;;21.58;44.61
10718;BME280;13513;42.700;23.124;2022-10-31T09:39:21;93554.23;;;21.77;42.84
10718;BME280;13513;42.700;23.124;2022-10-31T09:47:59;93545.97;;;21.87;43.35
10718;BME280;13513;42.700;23.124;2022-10-31T09:50:38;93545.77;;;21.83;43.82
10718;BME280;13513;42.700;23.124;2022-10-31T09:53:09;93542.81;;;22.34;41.66
10718;BME280;13513;42.700;23.124;2022-10-31T09:55:44;93534.81;;;23.11;40.21
10718;BME280;13513;42.700;23.124;2022-10-31T09:58:18;93534.31;;;23.81;38.35
10718;BME280;13513;42.700;23.124;2022-10-31T10:00:47;93532.52;;;24.61;35.75
10718;BME280;13513;42.700;23.124;2022-10-31T10:03:30;93535.53;;;24.42;36.67
10718;BME280;13513;42.700;23.124;2022-10-31T10:06:17;93533.17;;;23.54;38.29
10718;BME280;13513;42.700;23.124;2022-10-31T10:08:47;93533.00;;;23.51;38.37
10718;BME280;13513;42.700;23.124;2022-10-31T10:11:33;93534.38;;;23.40;38.70
10718;BME280;13513;42.700;23.124;2022-10-31T10:14:30;93525.31;;;23.55;38.86
10718;BME280;13513;42.700;23.124;2022-10-31T10:17:19;93527.19;;;23.46;38.72
10718;BME280;13513;42.700;23.124;2022-10-31T10:20:18;93528.09;;;22.67;40.25
10718;BME280;13513;42.700;23.124;2022-10-31T10:25:42;93530.75;;;22.07;41.71
10718;BME280;13513;42.700;23.124;2022-10-31T10:28:25;93525.36;;;22.07;41.68
10718;BME280;13513;42.700;23.124;2022-10-31T10:31:03;93524.09;;;21.91;42.21
10718;BME280;13513;42.700;23.124;2022-10-31T10:33:41;93517.48;;;21.56;43.17
10718;BME280;13513;42.700;23.124;2022-10-31T10:36:16;93519.60;;;21.86;42.67
10718;BME280;13513;42.700;23.124;2022-10-31T10:38:59;93513.51;;;22.68;41.96
10718;BME280;13513;42.700;23.124;2022-10-31T10:41:31;93512.81;;;23.59;38.97
10718;BME280;13513;42.700;23.124;2022-10-31T10:44:01;93505.88;;;23.56;39.16
10718;BME280;13513;42.700;23.124;2022-10-31T10:46:48;93504.38;;;24.28;37.27
10718;BME280;13513;42.700;23.124;2022-10-31T10:49:51;93505.34;;;24.40;36.81
10718;BME280;13513;42.700;23.124;2022-10-31T10:52:27;93502.27;;;23.69;38.48
10718;BME280;13513;42.700;23.124;2022-10-31T11:00:25;93488.89;;;24.31;36.85
10718;BME280;13513;42.700;23.124;2022-10-31T11:02:54;93495.47;;;26.19;34.27
10718;BME280;13513;42.700;23.124;2022-10-31T11:05:35;93487.86;;;28.16;31.19
10718;BME280;13513;42.700;23.124;2022-10-31T11:08:04;93488.62;;;29.90;28.63
10718;BME280;13513;42.700;23.124;2022-10-31T11:10:35;93478.81;;;31.15;27.25
10718;BME280;13513;42.700;23.124;2022-10-31T11:15:55;93473.42;;;34.05;23.75
10718;BME280;13513;42.700;23.124;2022-10-31T11:18:27;93475.44;;;34.11;22.91
10718;BME280;13513;42.700;23.124;2022-10-31T11:20:58;93473.67;;;34.83;22.03
10718;BME280;13513;42.700;23.124;2022-10-31T11:23:28;93472.16;;;34.66;22.17
10718;BME280;13513;42.700;23.124;2022-10-31T11:26:00;93474.91;;;33.95;22.50
10718;BME280;13513;42.700;23.124;2022-10-31T11:28:30;93467.51;;;34.46;22.08
10718;BME280;13513;42.700;23.124;2022-10-31T11:31:10;93463.49;;;33.73;22.80
10718;BME280;13513;42.700;23.124;2022-10-31T11:33:46;93461.16;;;32.79;22.68
10718;BME280;13513;42.700;23.124;2022-10-31T11:36:21;93453.44;;;32.85;23.33
10718;BME280;13513;42.700;23.124;2022-10-31T11:38:51;93458.58;;;32.90;23.77
10718;BME280;13513;42.700;23.124;2022-10-31T11:41:33;93448.13;;;33.45;23.56
10718;BME280;13513;42.700;23.124;2022-10-31T11:46:48;93455.06;;;33.89;22.30
10718;BME280;13513;42.700;23.124;2022-10-31T11:49:36;93447.61;;;33.73;22.35
10718;BME280;13513;42.700;23.124;2022-10-31T11:51:48;93448.94;;;32.21;24.02
10718;BME280;13513;42.700;23.124;2022-10-31T11:56:58;93451.08;;;30.50;25.71
10718;BME280;13513;42.700;23.124;2022-10-31T11:59:28;93442.75;;;30.77;26.11
10718;BME280;13513;42.700;23.124;2022-10-31T12:02:01;93444.69;;;30.86;25.97
10718;BME280;13513;42.700;23.124;2022-10-31T12:04:37;93444.11;;;30.52;25.51
10718;BME280;13513;42.700;23.124;2022-10-31T12:07:04;93436.70;;;28.91;28.01
10718;BME280;13513;42.700;23.124;2022-10-31T12:09:38;93441.75;;;28.14;29.30
10718;BME280;13513;42.700;23.124;2022-10-31T12:12:30;93443.87;;;27.54;29.49
10718;BME280;13513;42.700;23.124;2022-10-31T12:15:11;93437.13;;;26.83;30.60
10718;BME280;13513;42.700;23.124;2022-10-31T12:33:58;93429.95;;;24.98;33.92
10718;BME280;13513;42.700;23.124;2022-10-31T12:36:54;93437.46;;;25.16;33.71
10718;BME280;13513;42.700;23.124;2022-10-31T12:39:36;93431.62;;;25.28;34.29
10718;BME280;13513;42.700;23.124;2022-10-31T12:42:23;93428.45;;;25.18;33.90
10718;BME280;13513;42.700;23.124;2022-10-31T12:47:59;93432.45;;;24.72;34.79
10718;BME280;13513;42.700;23.124;2022-10-31T12:50:47;93424.58;;;24.56;35.56
10718;BME280;13513;42.700;23.124;2022-10-31T12:53:28;93424.17;;;24.60;35.09
10718;BME280;13513;42.700;23.124;2022-10-31T12:56:00;93425.16;;;24.64;35.30
10718;BME280;13513;42.700;23.124;2022-10-31T13:01:19;93427.61;;;24.29;35.45
10718;BME280;13513;42.700;23.124;2022-10-31T13:06:38;93425.32;;;23.88;36.49
10718;BME280;13513;42.700;23.124;2022-10-31T13:09:10;93428.53;;;23.99;37.02
10718;BME280;13513;42.700;23.124;2022-10-31T13:11:46;93430.63;;;24.27;35.76
10718;BME280;13513;42.700;23.124;2022-10-31T13:14:40;93427.94;;;24.36;36.53
10718;BME280;13513;42.700;23.124;2022-10-31T13:20:32;93429.02;;;24.94;35.65
10718;BME280;13513;42.700;23.124;2022-10-31T13:22:33;93431.75;;;25.09;35.67
10718;BME280;13513;42.700;23.124;2022-10-31T13:25:13;93429.98;;;25.44;33.80
10718;BME280;13513;42.700;23.124;2022-10-31T13:28:05;93427.44;;;25.77;34.24
10718;BME280;13513;42.700;23.124;2022-10-31T13:30:37;93416.05;;;26.06;33.70
10718;BME280;13513;42.700;23.124;2022-10-31T13:33:31;93420.84;;;26.36;33.34
10718;BME280;13513;42.700;23.124;2022-10-31T13:38:54;93427.11;;;27.02;31.46
10718;BME280;13513;42.700;23.124;2022-10-31T13:44:21;93428.24;;;27.33;30.65
10718;BME280;13513;42.700;23.124;2022-10-31T13:46:55;93424.53;;;27.56;30.69
10718;BME280;13513;42.700;23.124;2022-10-31T13:54:47;93430.20;;;27.69;30.43
10718;BME280;13513;42.700;23.124;2022-10-31T13:57:19;93421.36;;;27.48;30.77
10718;BME280;13513;42.700;23.124;2022-10-31T13:59:52;93427.36;;;27.35;30.33
10718;BME280;13513;42.700;23.124;2022-10-31T14:02:29;93426.97;;;27.25;30.77
10718;BME280;13513;42.700;23.124;2022-10-31T14:05:03;93430.38;;;27.28;31.06
10718;BME280;13513;42.700;23.124;2022-10-31T14:07:32;93431.98;;;27.35;31.24
10718;BME280;13513;42.700;23.124;2022-10-31T14:10:20;93433.56;;;27.36;30.91
10718;BME280;13513;42.700;23.124;2022-10-31T14:12:44;93431.33;;;27.05;31.56
10718;BME280;13513;42.700;23.124;2022-10-31T14:15:16;93437.34;;;27.11;31.10
10718;BME280;13513;42.700;23.124;2022-10-31T14:17:58;93435.28;;;27.14;30.73
10718;BME280;13513;42.700;23.124;2022-10-31T14:20:36;93436.11;;;27.20;30.76
10718;BME280;13513;42.700;23.124;2022-10-31T14:31:54;93443.02;;;26.91;31.09
10718;BME280;13513;42.700;23.124;2022-10-31T14:34:40;93442.33;;;26.82;31.12
10718;BME280;13513;42.700;23.124;2022-10-31T14:37:24;93438.20;;;26.49;31.83
10718;BME280;13513;42.700;23.124;2022-10-31T14:42:52;93435.91;;;26.25;32.10
10718;BME280;13513;42.700;23.124;2022-10-31T14:45:32;93441.53;;;25.62;32.47
10718;BME280;13513;42.700;23.124;2022-10-31T14:48:22;93443.32;;;25.35;33.08
10718;BME280;13513;42.700;23.124;2022-10-31T14:50:53;93440.69;;;25.01;33.57
10718;BME280;13513;42.700;23.124;2022-10-31T14:53:26;93445.59;;;24.67;34.39
10718;BME280;13513;42.700;23.124;2022-10-31T14:55:56;93441.27;;;24.32;35.07
10718;BME280;13513;42.700;23.124;2022-10-31T14:58:45;93443.00;;;23.94;35.32
10718;BME280;13513;42.700;23.124;2022-10-31T15:01:41;93444.97;;;23.63;36.08
10718;BME280;13513;42.700;23.124;2022-10-31T15:03:50;93440.30;;;23.27;36.77
10718;BME280;13513;42.700;23.124;2022-10-31T15:06:20;93444.80;;;22.98;37.23
10718;BME280;13513;42.700;23.124;2022-10-31T15:08:51;93439.58;;;22.71;37.76
10718;BME280;13513;42.700;23.124;2022-10-31T15:11:22;93440.95;;;22.49;38.14
10718;BME280;13513;42.700;23.124;2022-10-31T15:13:57;93441.06;;;22.20;38.74